createdAt,value
2023-02-14T00:01:10.915Z,98050.38
2023-02-14T00:03:37.945Z,98047.28
2023-02-14T00:06:14.877Z,98037.34
2023-02-14T00:08:44.512Z,98032.31
2023-02-14T00:11:13.270Z,98018.75
2023-02-14T00:14:00.415Z,98027.84
2023-02-14T00:16:27.565Z,98030.03
2023-02-14T00:19:03.430Z,98024.56
2023-02-14T00:21:38.055Z,98035.59
2023-02-14T00:24:10.894Z,98028.34
2023-02-14T00:26:38.960Z,98015.88
2023-02-14T00:29:07.819Z,98016.38
2023-02-14T00:31:35.575Z,98023.19
2023-02-14T00:34:04.151Z,98027.41
2023-02-14T00:36:31.049Z,98035.72
2023-02-14T00:38:58.059Z,98032.19
2023-02-14T00:41:25.226Z,98027.41
2023-02-14T00:43:53.695Z,98026.31
2023-02-14T00:46:22.346Z,98031.91
2023-02-14T00:48:49.549Z,98030.97
2023-02-14T00:51:18.537Z,98028.53
2023-02-14T00:53:47.382Z,98025.13
2023-02-14T00:56:14.876Z,98035.44
2023-02-14T00:58:43.645Z,98028.00
2023-02-14T01:01:11.252Z,98021.44
2023-02-14T01:03:38.622Z,98022.16
2023-02-14T01:06:06.752Z,98037.38
2023-02-14T01:08:34.032Z,98040.75
2023-02-14T01:11:19.411Z,98028.94
2023-02-14T01:13:48.366Z,98025.97
2023-02-14T01:16:21.944Z,98020.81
2023-02-14T01:18:49.821Z,98035.75
2023-02-14T01:21:21.163Z,98029.88
2023-02-14T01:23:51.069Z,98031.66
2023-02-14T01:26:19.689Z,98025.66
2023-02-14T01:28:47.252Z,98014.41
2023-02-14T01:31:17.675Z,98018.75
2023-02-14T01:33:46.260Z,98022.97
2023-02-14T01:36:28.222Z,98025.25
2023-02-14T01:39:09.072Z,98008.81
2023-02-14T01:41:38.033Z,98020.63
2023-02-14T01:44:33.552Z,98021.59
2023-02-14T01:47:05.164Z,98014.78
2023-02-14T01:49:38.503Z,98010.44
2023-02-14T01:52:37.822Z,98010.31
2023-02-14T01:55:10.964Z,98011.00
2023-02-14T01:57:44.488Z,98003.38
2023-02-14T02:00:31.460Z,98014.66
2023-02-14T02:03:01.540Z,98015.09
2023-02-14T02:05:48.836Z,98006.53
2023-02-14T02:08:17.031Z,98005.84
2023-02-14T02:10:44.623Z,98002.16
2023-02-14T02:13:20.046Z,98008.00
2023-02-14T02:16:08.056Z,98008.28
2023-02-14T02:18:53.642Z,98012.91
2023-02-14T02:21:20.456Z,98012.25
2023-02-14T02:23:57.835Z,98006.53
2023-02-14T02:26:48.855Z,98008.16
2023-02-14T02:29:55.228Z,98003.53
2023-02-14T02:32:28.196Z,98004.06
2023-02-14T02:35:16.883Z,97999.31
2023-02-14T02:37:51.849Z,97991.59
2023-02-14T02:40:32.753Z,97998.50
2023-02-14T02:43:30.726Z,97996.06
2023-02-14T02:46:35.641Z,98001.78
2023-02-14T02:49:14.458Z,97996.34
2023-02-14T02:52:07.477Z,97998.34
2023-02-14T02:54:43.205Z,98001.06
2023-02-14T02:57:19.735Z,97998.91
2023-02-14T02:59:47.844Z,97996.03
2023-02-14T03:03:03.315Z,97988.19
2023-02-14T03:05:33.604Z,98000.78
2023-02-14T03:08:00.716Z,97995.50
2023-02-14T03:10:32.307Z,97993.63
2023-02-14T03:13:24.811Z,97989.94
2023-02-14T03:15:51.760Z,97993.59
2023-02-14T03:18:43.265Z,97994.69
2023-02-14T03:21:37.425Z,97994.81
2023-02-14T03:24:10.464Z,97996.44
2023-02-14T03:26:48.281Z,98001.47
2023-02-14T03:29:37.377Z,98001.44
2023-02-14T03:32:07.946Z,97996.19
2023-02-14T03:34:53.738Z,97999.31
2023-02-14T03:37:34.329Z,97996.59
2023-02-14T03:40:28.639Z,97993.06
2023-02-14T03:43:01.625Z,98000.41
2023-02-14T03:45:41.490Z,97998.63
2023-02-14T03:48:13.427Z,97995.09
2023-02-14T03:50:42.827Z,97992.13
2023-02-14T03:53:11.915Z,97997.13
2023-02-14T03:55:51.466Z,97991.03
2023-02-14T03:58:24.829Z,97984.66
2023-02-14T04:00:58.605Z,97989.38
2023-02-14T04:03:30.069Z,97992.25
2023-02-14T04:05:57.157Z,97993.06
2023-02-14T04:08:26.875Z,97987.50
2023-02-14T04:10:56.781Z,97988.84
2023-02-14T04:13:23.934Z,97983.28
2023-02-14T04:15:50.824Z,97980.00
2023-02-14T04:18:36.414Z,97975.78
2023-02-14T04:21:03.687Z,97969.97
2023-02-14T04:23:30.599Z,97962.38
2023-02-14T04:25:57.934Z,97970.63
2023-02-14T04:28:25.748Z,97970.91
2023-02-14T04:30:52.831Z,97968.06
2023-02-14T04:33:19.775Z,97969.81
2023-02-14T04:35:47.994Z,97968.75
2023-02-14T04:38:14.778Z,97966.16
2023-02-14T04:40:41.743Z,97962.66
2023-02-14T04:43:08.772Z,97966.16
2023-02-14T04:45:35.804Z,97956.41
2023-02-14T04:48:02.786Z,97960.59
2023-02-14T04:50:29.924Z,97964.50
2023-02-14T04:52:56.921Z,97957.06
2023-02-14T04:55:23.982Z,97957.19
2023-02-14T04:57:50.932Z,97946.34
2023-02-14T05:00:18.548Z,97947.44
2023-02-14T05:02:45.659Z,97945.00
2023-02-14T05:05:12.719Z,97933.72
2023-02-14T05:07:39.800Z,97931.16
2023-02-14T05:10:07.553Z,97924.25
2023-02-14T05:12:35.031Z,97931.16
2023-02-14T05:15:02.259Z,97928.31
2023-02-14T05:17:29.740Z,97921.09
2023-02-14T05:19:56.726Z,97921.22
2023-02-14T05:22:23.696Z,97917.69
2023-02-14T05:24:50.700Z,97917.56
2023-02-14T05:27:17.709Z,97914.59
2023-02-14T05:29:44.644Z,97907.81
2023-02-14T05:32:11.613Z,97912.53
2023-02-14T05:34:38.575Z,97911.59
2023-02-14T05:37:05.681Z,97912.16
2023-02-14T05:39:32.630Z,97913.50
2023-02-14T05:41:59.656Z,97910.78
2023-02-14T05:44:26.702Z,97903.34
2023-02-14T05:46:55.050Z,97908.22
2023-02-14T05:49:22.100Z,97909.84
2023-02-14T05:51:49.038Z,97910.25
2023-02-14T05:54:15.995Z,97915.25
2023-02-14T05:56:42.974Z,97919.88
2023-02-14T05:59:09.915Z,97914.72
2023-02-14T06:01:36.918Z,97917.28
2023-02-14T06:04:03.946Z,97913.78
2023-02-14T06:06:30.963Z,97912.84
2023-02-14T06:08:57.951Z,97917.16
2023-02-14T06:11:24.875Z,97925.56
2023-02-14T06:13:51.910Z,97927.47
2023-02-14T06:16:18.895Z,97927.59
2023-02-14T06:18:45.827Z,97922.19
2023-02-14T06:21:13.411Z,97932.50
2023-02-14T06:23:40.407Z,97925.56
2023-02-14T06:26:07.495Z,97923.97
2023-02-14T06:28:34.407Z,97930.06
2023-02-14T06:31:01.615Z,97930.59
2023-02-14T06:33:28.948Z,97929.53
2023-02-14T06:35:55.953Z,97928.56
2023-02-14T06:38:22.993Z,97925.97
2023-02-14T06:40:49.947Z,97936.84
2023-02-14T06:43:16.877Z,97933.59
2023-02-14T06:45:45.146Z,97930.88
2023-02-14T06:48:12.123Z,97926.81
2023-02-14T06:50:39.095Z,97923.41
2023-02-14T06:53:06.458Z,97923.16
2023-02-14T06:55:33.433Z,97929.38
2023-02-14T06:58:00.420Z,97922.16
2023-02-14T07:00:27.528Z,97917.81
2023-02-14T07:02:54.517Z,97919.19
2023-02-14T07:05:22.162Z,97918.75
2023-02-14T07:07:49.181Z,97921.59
2023-02-14T07:10:16.323Z,97927.69
2023-02-14T07:12:43.460Z,97925.66
2023-02-14T07:15:12.806Z,97912.19
2023-02-14T07:17:39.985Z,97911.47
2023-02-14T07:20:09.374Z,97907.09
2023-02-14T07:22:36.907Z,97903.78
2023-02-14T07:25:04.922Z,97911.50
2023-02-14T07:27:32.572Z,97914.88
2023-02-14T07:29:59.733Z,97907.34
2023-02-14T07:32:26.928Z,97904.44
2023-02-14T07:34:54.331Z,97905.16
2023-02-14T07:37:21.464Z,97910.97
2023-02-14T07:39:48.506Z,97915.09
2023-02-14T07:42:15.507Z,97903.06
2023-02-14T07:44:46.794Z,97903.81
2023-02-14T07:47:13.734Z,97906.47
2023-02-14T07:49:40.763Z,97900.56
2023-02-14T07:52:07.874Z,97901.28
2023-02-14T07:54:35.374Z,97900.53
2023-02-14T07:57:02.463Z,97898.16
2023-02-14T07:59:29.389Z,97903.53
2023-02-14T08:01:56.753Z,97909.28
2023-02-14T08:04:26.355Z,97907.06
2023-02-14T08:06:54.299Z,97911.53
2023-02-14T08:09:27.724Z,97911.59
2023-02-14T08:12:16.822Z,97909.03
2023-02-14T08:14:44.982Z,97907.81
2023-02-14T08:17:13.610Z,97923.91
2023-02-14T08:19:41.158Z,97906.59
2023-02-14T08:22:08.851Z,97914.41
2023-02-14T08:24:35.869Z,97915.72
2023-02-14T08:27:02.981Z,97904.22
2023-02-14T08:29:30.068Z,97908.97
2023-02-14T08:32:00.521Z,97908.16
2023-02-14T08:34:27.670Z,97905.59
2023-02-14T08:36:55.506Z,97906.94
2023-02-14T08:39:22.743Z,97911.22
2023-02-14T08:41:49.770Z,97911.72
2023-02-14T08:44:16.825Z,97902.97
2023-02-14T08:46:43.918Z,97913.00
2023-02-14T08:49:11.430Z,97906.84
2023-02-14T08:51:38.509Z,97921.63
2023-02-14T08:54:05.564Z,97914.50
2023-02-14T08:56:33.261Z,97910.59
2023-02-14T08:59:00.329Z,97914.31
2023-02-14T09:01:29.297Z,97919.66
2023-02-14T09:03:57.021Z,97921.44
2023-02-14T09:06:24.810Z,97920.44
2023-02-14T09:08:51.997Z,97919.63
2023-02-14T09:11:24.308Z,97924.97
2023-02-14T09:13:56.139Z,97925.91
2023-02-14T09:16:25.048Z,97926.69
2023-02-14T09:18:53.650Z,97931.06
2023-02-14T09:21:24.634Z,97930.22
2023-02-14T09:23:52.440Z,97928.19
2023-02-14T09:26:20.110Z,97937.75
2023-02-14T09:28:47.897Z,97928.59
2023-02-14T09:31:20.374Z,97923.50
2023-02-14T09:33:49.083Z,97922.28
2023-02-14T09:36:34.712Z,97928.34
2023-02-14T09:39:01.710Z,97925.16
2023-02-14T09:41:31.635Z,97924.44
2023-02-14T09:44:27.110Z,97927.34
2023-02-14T09:46:57.183Z,97927.50
2023-02-14T09:49:34.360Z,97929.16
2023-02-14T09:52:04.668Z,97922.66
2023-02-14T09:54:34.950Z,97920.06
2023-02-14T09:57:17.557Z,97929.06
2023-02-14T10:00:00.520Z,97919.50
2023-02-14T10:02:39.403Z,97916.34
2023-02-14T10:05:06.660Z,97916.34
2023-02-14T10:08:05.626Z,97916.53
2023-02-14T10:10:41.862Z,97911.91
2023-02-14T10:13:56.832Z,97916.69
2023-02-14T10:16:37.850Z,97917.38
2023-02-14T10:19:12.969Z,97911.91
2023-02-14T10:22:17.283Z,97915.06
2023-02-14T10:24:54.420Z,97909.97
2023-02-14T10:27:44.870Z,97906.47
2023-02-14T10:30:21.576Z,97896.09
2023-02-14T10:32:56.329Z,97897.75
2023-02-14T10:35:34.370Z,97891.38
2023-02-14T10:38:27.822Z,97901.47
2023-02-14T10:40:57.690Z,97885.41
2023-02-14T10:43:39.332Z,97885.84
2023-02-14T10:46:36.519Z,97888.91
2023-02-14T10:49:25.714Z,97878.63
2023-02-14T10:52:02.132Z,97887.75
2023-02-14T10:54:39.274Z,97878.69
2023-02-14T10:57:22.311Z,97879.50
2023-02-14T11:00:00.865Z,97877.50
2023-02-14T11:02:35.227Z,97877.88
2023-02-14T11:05:04.765Z,97877.28
2023-02-14T11:07:31.763Z,97868.59
2023-02-14T11:09:58.823Z,97865.09
2023-02-14T11:12:32.757Z,97864.69
2023-02-14T11:15:19.585Z,97858.59
2023-02-14T11:17:46.674Z,97856.72
2023-02-14T11:20:22.945Z,97850.38
2023-02-14T11:22:50.511Z,97841.94
2023-02-14T11:25:31.585Z,97849.78
2023-02-14T11:28:08.856Z,97842.47
2023-02-14T11:30:48.034Z,97839.94
2023-02-14T11:33:38.803Z,97835.09
2023-02-14T11:36:12.354Z,97834.75
2023-02-14T11:38:40.923Z,97825.19
2023-02-14T11:41:11.771Z,97830.09
2023-02-14T11:43:44.727Z,97829.41
2023-02-14T11:46:24.237Z,97830.44
2023-02-14T11:49:07.083Z,97828.56
2023-02-14T11:51:42.073Z,97821.44
2023-02-14T11:54:24.705Z,97827.06
2023-02-14T11:57:01.619Z,97823.22
2023-02-14T11:59:53.503Z,97818.25
2023-02-14T12:13:28.004Z,97811.03
2023-02-14T12:15:58.027Z,97807.88
2023-02-14T12:18:56.276Z,97800.84
2023-02-14T12:21:47.615Z,97796.16
2023-02-14T12:24:28.356Z,97792.69
2023-02-14T12:27:23.555Z,97794.25
2023-02-14T12:30:01.931Z,97796.88
2023-02-14T12:32:31.870Z,97795.19
2023-02-14T12:35:27.823Z,97789.38
2023-02-14T12:38:06.312Z,97788.63
2023-02-14T12:41:06.131Z,97774.53
2023-02-14T12:43:46.383Z,97767.97
2023-02-14T12:46:32.142Z,97774.69
2023-02-14T12:49:14.400Z,97769.81
2023-02-14T12:52:02.280Z,97768.69
2023-02-14T12:55:14.404Z,97774.28
2023-02-14T12:57:50.451Z,97768.09
2023-02-14T13:00:57.091Z,97765.69
2023-02-14T13:03:27.003Z,97760.13
2023-02-14T13:05:58.576Z,97762.50
2023-02-14T13:08:42.746Z,97755.53
2023-02-14T13:11:12.623Z,97750.88
2023-02-14T13:13:47.925Z,97749.84
2023-02-14T13:16:23.668Z,97756.59
2023-02-14T13:18:58.251Z,97747.50
2023-02-14T13:21:29.653Z,97754.38
2023-02-14T13:24:13.224Z,97751.31
2023-02-14T13:26:45.422Z,97742.75
2023-02-14T13:29:19.595Z,97743.34
2023-02-14T13:31:47.283Z,97727.59
2023-02-14T13:34:16.943Z,97730.00
2023-02-14T13:36:44.462Z,97728.59
2023-02-14T13:39:25.561Z,97727.38
2023-02-14T13:41:52.638Z,97728.38
2023-02-14T13:44:47.870Z,97730.16
2023-02-14T13:47:22.434Z,97727.44
2023-02-14T13:49:55.007Z,97724.56
2023-02-14T13:52:47.641Z,97723.81
2023-02-14T13:55:26.287Z,97719.50
2023-02-14T13:58:16.880Z,97721.44
2023-02-14T14:00:48.265Z,97721.91
2023-02-14T14:03:38.218Z,97715.44
2023-02-14T14:06:10.984Z,97718.41
2023-02-14T14:08:45.072Z,97712.34
2023-02-14T14:11:21.157Z,97720.41
2023-02-14T14:13:54.878Z,97727.78
2023-02-14T14:16:28.250Z,97714.47
2023-02-14T14:19:30.696Z,97720.50
2023-02-14T14:22:04.038Z,97732.09
2023-02-14T14:24:57.350Z,97729.81
2023-02-14T14:27:29.491Z,97729.13
2023-02-14T14:29:58.856Z,97738.72
2023-02-14T14:32:34.732Z,97734.78
2023-02-14T14:35:21.653Z,97746.06
2023-02-14T14:37:56.892Z,97744.22
2023-02-14T14:40:25.778Z,97740.50
2023-02-14T14:42:54.361Z,97739.19
2023-02-14T14:45:26.817Z,97741.00
2023-02-14T14:47:57.838Z,97733.47
2023-02-14T14:50:26.662Z,97741.19
2023-02-14T14:52:57.459Z,97738.00
2023-02-14T14:55:31.331Z,97746.09
2023-02-14T14:58:01.117Z,97747.63
2023-02-14T15:00:31.785Z,97739.47
2023-02-14T15:03:22.308Z,97742.94
2023-02-14T15:05:51.336Z,97740.34
2023-02-14T15:08:33.098Z,97744.69
2023-02-14T15:11:10.014Z,97737.44
2023-02-14T15:13:55.198Z,97741.09
2023-02-14T15:16:26.549Z,97745.56
2023-02-14T15:19:16.362Z,97744.16
2023-02-14T15:21:44.796Z,97746.22
2023-02-14T15:24:16.269Z,97746.00
2023-02-14T15:26:45.567Z,97743.38
2023-02-14T15:29:25.875Z,97746.34
2023-02-14T15:31:54.064Z,97753.41
2023-02-14T15:34:23.875Z,97750.38
2023-02-14T15:36:56.311Z,97756.97
2023-02-14T15:39:32.650Z,97752.34
2023-02-14T15:42:00.032Z,97754.53
2023-02-14T15:44:27.000Z,97760.13
2023-02-14T15:46:58.859Z,97754.28
2023-02-14T15:49:41.505Z,97755.44
2023-02-14T15:52:14.351Z,97753.38
2023-02-14T15:54:47.606Z,97760.19
2023-02-14T15:57:25.388Z,97764.22
2023-02-14T15:59:52.710Z,97766.00
2023-02-14T16:02:38.794Z,97759.91
2023-02-14T16:05:20.763Z,97762.88
2023-02-14T16:08:04.424Z,97763.66
2023-02-14T16:10:40.596Z,97767.03
2023-02-14T16:13:20.669Z,97770.59
2023-02-14T16:16:01.312Z,97773.50
2023-02-14T16:18:43.609Z,97773.91
2023-02-14T16:21:28.617Z,97781.47
2023-02-14T16:24:07.576Z,97783.97
2023-02-14T16:26:38.353Z,97785.44
2023-02-14T16:29:07.359Z,97787.13
2023-02-14T16:31:34.804Z,97799.22
2023-02-14T16:34:02.191Z,97797.91
2023-02-14T16:36:33.725Z,97800.78
2023-02-14T16:39:05.270Z,97810.44
2023-02-14T16:41:34.377Z,97804.69
2023-02-14T16:44:01.659Z,97808.41
2023-02-14T16:46:35.276Z,97814.03
2023-02-14T16:49:03.481Z,97810.53
2023-02-14T16:51:35.567Z,97814.22
2023-02-14T16:54:09.408Z,97818.72
2023-02-14T16:56:52.947Z,97818.78
2023-02-14T16:59:21.547Z,97816.25
2023-02-14T17:01:50.318Z,97822.16
2023-02-14T17:04:18.257Z,97820.22
2023-02-14T17:06:54.050Z,97819.31
2023-02-14T17:09:30.752Z,97822.63
2023-02-14T17:12:04.119Z,97818.94
2023-02-14T17:14:37.926Z,97826.47
2023-02-14T17:17:08.698Z,97827.16
2023-02-14T17:19:37.523Z,97830.16
2023-02-14T17:22:06.256Z,97834.56
2023-02-14T17:24:36.275Z,97839.84
2023-02-14T17:27:05.572Z,97831.00
2023-02-14T17:29:34.438Z,97830.38
2023-02-14T17:32:02.980Z,97832.81
2023-02-14T17:34:34.574Z,97834.47
2023-02-14T17:37:03.103Z,97826.72
2023-02-14T17:39:30.107Z,97824.47
2023-02-14T17:41:57.131Z,97825.78
2023-02-14T17:44:24.318Z,97818.50
2023-02-14T17:46:51.444Z,97832.00
2023-02-14T17:49:19.792Z,97833.16
2023-02-14T17:51:50.027Z,97833.47
2023-02-14T17:54:18.000Z,97833.00
2023-02-14T17:56:45.533Z,97829.16
2023-02-14T17:59:14.364Z,97834.00
2023-02-14T18:01:43.472Z,97831.56
2023-02-14T18:04:10.722Z,97831.78
2023-02-14T18:06:38.913Z,97830.03
2023-02-14T18:09:10.206Z,97834.25
2023-02-14T18:11:40.271Z,97828.28
2023-02-14T18:14:07.355Z,97831.53
2023-02-14T18:16:41.924Z,97832.19
2023-02-14T18:19:10.616Z,97831.72
2023-02-14T18:21:40.573Z,97827.97
2023-02-14T18:24:20.822Z,97841.63
2023-02-14T18:26:50.680Z,97837.72
2023-02-14T18:29:18.641Z,97846.31
2023-02-14T18:31:47.168Z,97835.63
2023-02-14T18:34:16.170Z,97843.72
2023-02-14T18:36:46.423Z,97839.19
2023-02-14T18:39:14.952Z,97840.66
2023-02-14T18:41:43.123Z,97849.91
2023-02-14T18:44:10.922Z,97837.53
2023-02-14T18:46:38.963Z,97839.47
2023-02-14T18:49:09.018Z,97842.53
2023-02-14T18:51:40.076Z,97835.41
2023-02-14T18:54:08.278Z,97848.38
2023-02-14T18:56:44.537Z,97853.09
2023-02-14T18:59:18.393Z,97843.97
2023-02-14T19:01:47.056Z,97836.69
2023-02-14T19:04:18.490Z,97847.56
2023-02-14T19:06:47.492Z,97833.41
2023-02-14T19:09:18.297Z,97845.09
2023-02-14T19:11:47.086Z,97842.81
2023-02-14T19:14:16.283Z,97842.31
2023-02-14T19:16:51.373Z,97836.00
2023-02-14T19:19:20.408Z,97840.19
2023-02-14T19:21:48.573Z,97830.00
2023-02-14T19:24:18.542Z,97841.63
2023-02-14T19:26:46.828Z,97837.41
2023-02-14T19:29:17.841Z,97837.75
2023-02-14T19:31:49.942Z,97836.25
2023-02-14T19:34:21.439Z,97832.38
2023-02-14T19:36:51.699Z,97832.84
2023-02-14T19:39:20.584Z,97838.00
2023-02-14T19:41:48.835Z,97836.38
2023-02-14T19:44:19.055Z,97838.50
2023-02-14T19:46:48.689Z,97837.69
2023-02-14T19:49:20.435Z,97841.38
2023-02-14T19:51:52.724Z,97837.34
2023-02-14T19:54:26.428Z,97836.53
2023-02-14T19:56:57.216Z,97840.91
2023-02-14T19:59:29.024Z,97830.38
2023-02-14T20:01:58.847Z,97834.09
2023-02-14T20:04:30.233Z,97832.47
2023-02-14T20:06:58.659Z,97830.97
2023-02-14T20:09:29.916Z,97830.50
2023-02-14T20:12:00.297Z,97831.75
2023-02-14T20:14:40.795Z,97832.22
2023-02-14T20:17:18.959Z,97817.66
2023-02-14T20:20:08.466Z,97821.38
2023-02-14T20:22:38.444Z,97821.03
2023-02-14T20:25:07.072Z,97809.03
2023-02-14T20:27:34.391Z,97819.72
2023-02-14T20:30:04.179Z,97818.09
2023-02-14T20:32:32.060Z,97813.06
2023-02-14T20:35:04.156Z,97815.97
2023-02-14T20:37:33.525Z,97815.94
2023-02-14T20:40:05.669Z,97822.16
2023-02-14T20:42:35.053Z,97826.84
2023-02-14T20:45:02.745Z,97823.75
2023-02-14T20:47:32.760Z,97826.94
2023-02-14T20:50:00.447Z,97833.22
2023-02-14T20:52:29.100Z,97830.97
2023-02-14T20:54:59.792Z,97823.47
2023-02-14T20:57:30.043Z,97825.41
2023-02-14T20:59:57.918Z,97823.94
2023-02-14T21:02:30.506Z,97822.63
2023-02-14T21:05:01.646Z,97827.72
2023-02-14T21:07:32.378Z,97824.94
2023-02-14T21:10:00.307Z,97823.47
2023-02-14T21:12:30.376Z,97825.38
2023-02-14T21:14:59.488Z,97817.41
2023-02-14T21:17:29.254Z,97821.47
2023-02-14T21:19:58.081Z,97822.72
2023-02-14T21:22:27.017Z,97814.47
2023-02-14T21:24:55.043Z,97814.16
2023-02-14T21:27:24.140Z,97811.28
2023-02-14T21:29:54.367Z,97815.13
2023-02-14T21:32:23.241Z,97812.84
2023-02-14T21:34:51.510Z,97814.63
2023-02-14T21:37:20.825Z,97810.84
2023-02-14T21:39:48.767Z,97814.75
2023-02-14T21:42:19.168Z,97818.44
2023-02-14T21:45:05.608Z,97816.31
2023-02-14T21:47:39.499Z,97820.59
2023-02-14T21:50:39.528Z,97820.47
2023-02-14T21:53:09.981Z,97820.47
2023-02-14T21:55:39.380Z,97821.13
2023-02-14T21:58:08.226Z,97820.69
2023-02-14T22:00:36.079Z,97818.75
2023-02-14T22:03:04.939Z,97811.34
2023-02-14T22:05:34.768Z,97818.03
2023-02-14T22:08:05.048Z,97817.06
2023-02-14T22:10:33.858Z,97813.19
2023-02-14T22:13:01.675Z,97811.09
2023-02-14T22:15:30.617Z,97811.78
2023-02-14T22:17:58.803Z,97809.72
2023-02-14T22:20:27.854Z,97809.56
2023-02-14T22:22:55.125Z,97812.50
2023-02-14T22:25:22.014Z,97805.09
2023-02-14T22:27:48.947Z,97807.19
2023-02-14T22:30:16.001Z,97811.84
2023-02-14T22:32:42.914Z,97815.09
2023-02-14T22:35:09.881Z,97810.59
2023-02-14T22:37:36.946Z,97810.88
2023-02-14T22:40:04.410Z,97811.03
2023-02-14T22:42:32.080Z,97810.59
2023-02-14T22:44:59.040Z,97818.59
2023-02-14T22:47:26.071Z,97816.81
2023-02-14T22:49:53.120Z,97818.88
2023-02-14T22:52:20.123Z,97814.16
2023-02-14T22:54:47.135Z,97819.75
2023-02-14T22:57:14.221Z,97821.38
2023-02-14T22:59:41.219Z,97818.66
2023-02-14T23:02:09.904Z,97814.16
2023-02-14T23:04:36.928Z,97818.03
2023-02-14T23:07:03.854Z,97812.44
2023-02-14T23:09:30.969Z,97821.84
2023-02-14T23:11:57.969Z,97820.75
2023-02-14T23:14:43.529Z,97826.28
2023-02-14T23:17:15.129Z,97815.16
2023-02-14T23:20:02.080Z,97816.59
2023-02-14T23:22:41.082Z,97815.69
2023-02-14T23:25:11.080Z,97807.31
2023-02-14T23:27:43.704Z,97815.72
2023-02-14T23:30:14.325Z,97798.41
2023-02-14T23:32:41.601Z,97801.22
2023-02-14T23:35:09.244Z,97797.81
2023-02-14T23:37:36.424Z,97795.69
2023-02-14T23:40:04.208Z,97795.88
2023-02-14T23:42:31.173Z,97790.41
2023-02-14T23:45:18.030Z,97793.03
2023-02-14T23:47:45.153Z,97788.97
2023-02-14T23:50:12.094Z,97784.75
2023-02-14T23:52:41.981Z,97783.31
2023-02-14T23:55:09.508Z,97781.25
2023-02-14T23:57:37.223Z,97784.78
